Aérodrome :
LOGIN :

S'inscrire | Disclaimer

   EN    FR    IT 

 










Légende :    VFR   VFR Marginal   IFR   IFR Intensif   IFR Très Intensif
Visi : 
Plafond : 
>= 8 km
>= 3000ft
5 à 8 km
1000 à 3000 ft
1500m à 5 km
500 à 1000 ft
800 à 1500m
200 à 500 ft
< 800m
< 200 ft
Symboles :   Orages  Brouillard  Fortes neiges  Fortes précipitations  Vent > 20 kt
SIGMETs :   Divers  Orages  Givrage  Turbulence  Onde Orograph.  Cendres Volcan.







- Altitude de l'aérodrome : 137 ft
- Code IATA : THN


ESGT - Trollhattan-Vanersborg

DERNIER METAR :
  • 230720Z 17014G24KT 9999 -RA FEW020 BKN046 08/06 Q0990

METARs EXPIRÉS :
  • 230650Z 17015KT 9999 -RA FEW015 BKN046 08/06 Q0990
  • 230550Z 17015KT 9000 -RA BR SCT015 SCT025 08/06 Q0991
  • 230520Z 17015KT 9000 -RA BR SCT015 BKN022 08/06 Q0991
  • 230450Z 18016KT 9000 -RA SCT015 BKN022 08/06 Q0991

TAF TAF ESGT
Valide du 23 à 06h jusqu'au 23 à 15h UTC


230530Z 2306/2315 18015G25KT 9000 -RA BR SCT020
Pas de NOTAMs connus pour ce terrain.
2 SIGMETs publiés pour la FIR Sweden (ESAA) :
 
Turbulence forte
ESAA SIGMET 5 VALID 230700/230930 ESSA
ESAA SWEDEN FIR SEV TURB FCST WI N6325 E01419 - N6242 E01808 - N6347 E02035 - N6445 E02112 - N6519 E02143 - N6603 E01708 - N6325 E01419 SFC/3000 MOV N 15KT NC=
Turbulence forte
ESAA SIGMET 4 VALID 230600/230900 ESSA
ESAA SWEDEN FIR SEV TURB FCST WI N6330 E01200 - N6330 E01415 - N6820 E02000 - N6835 E01800 - N6330 E01200 SFC/FL070 MOV N 15KT NC=



MET'MAP, la Météo Aéronautique d'un coup d'oeil ! - Copyright ORBIFLY Décembre 2007 - Disclaimer

ORBIFLY MET'MAP TEAM :

Programmation & Développement : Alexandra Zaïnal
Conception & Développement : Baudouin d'Aumeries
Co-Programmation & Développement : Marc-Olivier Méhu
Soutien technique & logistique : Manuel Goepfert

Contact : metmap@orbifly.com




SOURCES & CREDITS :

   NOAA